| time (UTC) | temp F | wind direction | speed MPH | gust MPH | rain 1hr in | rain 24hr in | rain mn in | humidity % | barometer mb |
| 20260510054816 | 52 | 209 | 1.0 | 5.0 | 0.00 | 1.52 | 0.01 | 98 | 1000.7 |
| 20260510053916 | 52 | 221 | 2.0 | 6.0 | 0.00 | 1.52 | 0.01 | 98 | 1000.8 |
| 20260510053016 | 52 | 191 | 3.0 | 6.0 | 0.00 | 1.52 | 0.01 | 98 | 1000.7 |
| 20260510052116 | 52 | 162 | 2.0 | 5.0 | 0.00 | 1.52 | 0.01 | 98 | 1000.7 |
| 20260510051216 | 52 | 199 | 1.0 | 4.0 | 0.00 | 1.52 | 0.01 | 98 | 1000.8 |
| 20260510050316 | 52 | 207 | 2.0 | 4.0 | 0.00 | 1.52 | 0.01 | 98 | 1000.9 |
| 20260510045416 | 52 | 230 | 1.0 | 3.0 | 0.00 | 1.52 | 0.01 | 98 | 1001.0 |
| 20260510044516 | 52 | 169 | 1.0 | 5.0 | 0.00 | 1.52 | 0.01 | 98 | 1000.9 |
| 20260510043616 | 52 | 200 | 1.0 | 5.0 | 0.00 | 1.52 | 0.01 | 98 | 1000.9 |
| 20260510042716 | 52 | 175 | 3.0 | 5.0 | 0.00 | 1.52 | 0.01 | 98 | 1000.8 |
| 20260510040916 | 52 | 187 | 2.0 | 4.0 | 0.00 | 1.52 | 0.01 | 98 | 1000.6 |
| 20260510040016 | 52 | 258 | 1.0 | 4.0 | 0.00 | 1.52 | 0.01 | 98 | 1000.4 |
| 20260510035116 | 52 | 178 | 2.0 | 4.0 | 0.00 | 1.52 | 0.01 | 98 | 1000.5 |
| 20260510034216 | 52 | 163 | 2.0 | 5.0 | 0.00 | 1.52 | 0.01 | 98 | 1000.5 |
| 20260510033316 | 52 | 178 | 2.0 | 5.0 | 0.00 | 1.52 | 0.01 | 98 | 1000.5 |
| 20260510032416 | 52 | 167 | 3.0 | 7.0 | 0.00 | 1.52 | 0.01 | 98 | 1000.5 |
| 20260510031516 | 52 | 161 | 5.0 | 7.0 | 0.00 | 1.52 | 0.01 | 98 | 1000.5 |
| 20260510030616 | 52 | 164 | 2.0 | 7.0 | 0.00 | 1.52 | 0.01 | 98 | 1000.6 |
| 20260510025716 | 52 | 161 | 4.0 | 8.0 | 0.00 | 1.52 | 0.01 | 98 | 1000.6 |
| 20260510024816 | 52 | 162 | 3.0 | 5.0 | 0.00 | 1.52 | 0.01 | 98 | 1000.6 |
| 20260510023015 | 52 | 168 | 3.0 | 7.0 | 0.00 | 1.52 | 0.01 | 98 | 1000.6 |
| 20260510022116 | 52 | 161 | 3.0 | 6.0 | 0.00 | 1.52 | 0.01 | 98 | 1000.5 |
| 20260510021216 | 52 | 157 | 3.0 | 8.0 | 0.00 | 1.52 | 0.01 | 98 | 1000.4 |
| 20260510020316 | 52 | 168 | 3.0 | 7.0 | 0.01 | 1.52 | 0.01 | 97 | 1000.4 |
| 20260510015416 | 52 | 170 | 4.0 | 9.0 | 0.01 | 1.52 | 0.01 | 97 | 1000.4 |
| 20260510014515 | 52 | 166 | 4.0 | 9.0 | 0.01 | 1.52 | 0.01 | 97 | 1000.5 |
| 20260510013615 | 52 | 166 | 5.0 | 8.0 | 0.01 | 1.52 | 0.01 | 97 | 1000.4 |
| 20260510012715 | 53 | 164 | 4.0 | 8.0 | 0.01 | 1.52 | 0.01 | 97 | 1000.4 |
| 20260510011815 | 53 | 157 | 3.0 | 6.0 | 0.01 | 1.52 | 0.01 | 97 | 1000.3 |
| 20260510010915 | 53 | 161 | 5.0 | 8.0 | 0.01 | 1.52 | 0.01 | 97 | 1000.3 |
| 20260510010015 | 53 | 158 | 5.0 | 8.0 | 0.00 | 1.51 | 0.00 | 97 | 1000.3 |
| 20260510005115 | 53 | 162 | 6.0 | 10.0 | 0.00 | 1.51 | 0.00 | 97 | 1000.2 |
| 20260510004215 | 53 | 163 | 8.0 | 12.0 | 0.00 | 1.51 | 0.00 | 97 | 1000.1 |
| 20260510003315 | 53 | 163 | 10.0 | 13.0 | 0.00 | 1.51 | 0.00 | 97 | 999.8 |
| 20260510002415 | 53 | 166 | 11.0 | 14.0 | 0.00 | 1.51 | 0.00 | 97 | 999.7 |
| 20260510001515 | 53 | 164 | 10.0 | 13.0 | 0.01 | 1.51 | 0.00 | 97 | 999.7 |
| 20260510000615 | 53 | 164 | 7.0 | 12.0 | 0.10 | 1.51 | 0.00 | 97 | 999.7 |
| 20260509235715 | 53 | 164 | 4.0 | 11.0 | 0.15 | 1.51 | 1.51 | 97 | 999.8 |
| 20260509234815 | 53 | 164 | 6.0 | 12.0 | 0.15 | 1.51 | 1.51 | 97 | 999.8 |
| 20260509233915 | 53 | 195 | 5.0 | 10.0 | 0.15 | 1.51 | 1.51 | 97 | 1000.2 |
| 20260509233015 | 53 | 179 | 4.0 | 9.0 | 0.16 | 1.51 | 1.51 | 97 | 999.9 |
| 20260509232115 | 53 | 269 | 4.0 | 8.0 | 0.16 | 1.51 | 1.51 | 97 | 1000.2 |
| 20260509231215 | 53 | 281 | 8.0 | 16.0 | 0.14 | 1.49 | 1.50 | 97 | 1000.6 |
| 20260509230315 | 53 | 282 | 4.0 | 13.0 | 0.03 | 1.38 | 1.38 | 96 | 1000.7 |
| 20260509224515 | 53 | 210 | 3.0 | 7.0 | 0.02 | 1.36 | 1.36 | 96 | 1000.4 |
| 20260509223615 | 53 | 207 | 2.0 | 6.0 | 0.02 | 1.35 | 1.35 | 96 | 1000.5 |
| 20260509221815 | 52 | 160 | 4.0 | 7.0 | 0.09 | 1.35 | 1.35 | 95 | 1000.4 |
| 20260509220915 | 52 | 201 | 3.0 | 9.0 | 0.10 | 1.35 | 1.35 | 95 | 1000.7 |
| 20260509220015 | 52 | 213 | 5.0 | 11.0 | 0.10 | 1.34 | 1.34 | 95 | 1001.0 |
| 20260509215115 | 52 | 216 | 4.0 | 12.0 | 0.11 | 1.34 | 1.34 | 95 | 1001.0 |
| 20260509214214 | 53 | 207 | 5.0 | 12.0 | 0.11 | 1.33 | 1.34 | 95 | 1000.9 |
| 20260509212415 | 53 | 224 | 8.0 | 17.0 | 0.15 | 1.30 | 1.30 | 94 | 1001.1 |
| 20260509211514 | 53 | 219 | 6.0 | 13.0 | 0.13 | 1.25 | 1.25 | 93 | 1001.0 |
| 20260509210614 | 53 | 219 | 9.0 | 20.0 | 0.26 | 1.25 | 1.25 | 93 | 1000.7 |
| 20260509205714 | 54 | 225 | 10.0 | 17.0 | 0.32 | 1.23 | 1.23 | 92 | 1000.8 |
| 20260509203914 | 54 | 229 | 8.0 | 21.0 | 0.44 | 1.22 | 1.22 | 95 | 1000.9 |
| 20260509203014 | 54 | 232 | 6.0 | 14.0 | 0.47 | 1.17 | 1.17 | 96 | 1000.9 |
| 20260509202114 | 54 | 235 | 10.0 | 20.0 | 0.50 | 1.15 | 1.15 | 96 | 1000.9 |
| 20260509201214 | 54 | 225 | 11.0 | 21.0 | 0.47 | 1.07 | 1.07 | 96 | 1001.1 |
| 20260509200314 | 54 | 226 | 13.0 | 27.0 | 0.43 | 0.96 | 0.96 | 95 | 1001.0 |
| 20260509194514 | 54 | 224 | 12.0 | 25.0 | 0.44 | 0.81 | 0.82 | 95 | 1001.0 |
| 20260509193614 | 54 | 235 | 13.0 | 25.0 | 0.52 | 0.77 | 0.77 | 95 | 1001.0 |
| 20260509192714 | 54 | 237 | 11.0 | 19.0 | 0.57 | 0.70 | 0.70 | 95 | 1001.1 |
| 20260509191814 | 54 | 235 | 12.0 | 20.0 | 0.57 | 0.64 | 0.64 | 94 | 1001.2 |
| 20260509190914 | 54 | 229 | 13.0 | 24.0 | 0.56 | 0.56 | 0.57 | 94 | 1001.3 |
| 20260509190014 | 54 | 224 | 14.0 | 25.0 | 0.52 | 0.52 | 0.52 | 94 | 1001.2 |
| 20260509184214 | 55 | 226 | 11.0 | 25.0 | 0.34 | 0.34 | 0.34 | 92 | 1001.2 |
| 20260509183314 | 56 | 221 | 12.0 | 20.0 | 0.22 | 0.22 | 0.22 | 91 | 1001.0 |
| 20260509182414 | 56 | 229 | 15.0 | 28.0 | 0.12 | 0.12 | 0.12 | 90 | 1001.1 |
| 20260509181514 | 57 | 233 | 16.0 | 31.0 | 0.02 | 0.02 | 0.03 | 87 | 1000.9 |
| 20260509180614 | 59 | 231 | 13.0 | 25.0 | 0.00 | 0.00 | 0.00 | 82 | 1000.7 |
| 20260509175714 | 60 | 220 | 12.0 | 25.0 | 0.00 | 0.00 | 0.00 | 80 | 1000.7 |
| 20260509174814 | 60 | 214 | 15.0 | 32.0 | 0.00 | 0.00 | 0.00 | 80 | 1000.3 |
| 20260509173913 | 60 | 212 | 11.0 | 23.0 | 0.00 | 0.00 | 0.00 | 79 | 1000.2 |
| 20260509173014 | 60 | 204 | 10.0 | 23.0 | 0.00 | 0.00 | 0.00 | 77 | 1000.4 |
| 20260509172113 | 60 | 212 | 11.0 | 26.0 | 0.00 | 0.00 | 0.00 | 77 | 1000.4 |
| 20260509171213 | 60 | 215 | 10.0 | 25.0 | 0.00 | 0.00 | 0.00 | 78 | 1000.6 |
| 20260509170313 | 60 | 217 | 11.0 | 24.0 | 0.00 | 0.00 | 0.00 | 78 | 1000.6 |
| 20260509165413 | 59 | 217 | 13.0 | 23.0 | 0.00 | 0.00 | 0.00 | 79 | 1000.9 |
| 20260509164513 | 59 | 217 | 11.0 | 25.0 | 0.00 | 0.00 | 0.00 | 79 | 1001.0 |
| 20260509163613 | 59 | 212 | 7.0 | 17.0 | 0.00 | 0.00 | 0.00 | 79 | 1001.2 |
| 20260509162713 | 59 | 197 | 8.0 | 17.0 | 0.00 | 0.00 | 0.00 | 79 | 1001.3 |
| 20260509161813 | 60 | 192 | 7.0 | 18.0 | 0.00 | 0.00 | 0.00 | 78 | 1001.3 |
| 20260509160013 | 60 | 190 | 7.0 | 15.0 | 0.00 | 0.00 | 0.00 | 78 | 1001.5 |
| 20260509155113 | 60 | 205 | 8.0 | 15.0 | 0.00 | 0.00 | 0.00 | 78 | 1001.6 |
| 20260509154213 | 59 | 198 | 8.0 | 18.0 | 0.00 | 0.00 | 0.00 | 79 | 1001.6 |
| 20260509153313 | 59 | 181 | 9.0 | 15.0 | 0.00 | 0.00 | 0.00 | 80 | 1001.7 |
| 20260509152413 | 58 | 188 | 8.0 | 16.0 | 0.00 | 0.00 | 0.00 | 80 | 1001.7 |
| 20260509151513 | 58 | 196 | 7.0 | 17.0 | 0.00 | 0.00 | 0.00 | 80 | 1001.7 |
| 20260509150613 | 58 | 177 | 7.0 | 17.0 | 0.00 | 0.00 | 0.00 | 81 | 1002.0 |
| 20260509145713 | 58 | 167 | 10.0 | 16.0 | 0.00 | 0.00 | 0.00 | 80 | 1002.0 |
| 20260509144813 | 58 | 166 | 9.0 | 16.0 | 0.00 | 0.00 | 0.00 | 80 | 1001.9 |
| 20260509143913 | 58 | 165 | 8.0 | 15.0 | 0.00 | 0.00 | 0.00 | 79 | 1002.0 |
| 20260509143013 | 58 | 158 | 7.0 | 13.0 | 0.00 | 0.00 | 0.00 | 79 | 1001.9 |
| 20260509142113 | 57 | 164 | 7.0 | 14.0 | 0.00 | 0.00 | 0.00 | 78 | 1002.0 |
| 20260509141213 | 57 | 168 | 8.0 | 15.0 | 0.00 | 0.00 | 0.00 | 78 | 1002.0 |
| 20260509140313 | 58 | 164 | 5.0 | 10.0 | 0.00 | 0.00 | 0.00 | 77 | 1002.0 |
| 20260509135413 | 58 | 184 | 5.0 | 13.0 | 0.00 | 0.00 | 0.00 | 77 | 1002.2 |
| 20260509134513 | 57 | 212 | 5.0 | 13.0 | 0.00 | 0.00 | 0.00 | 76 | 1002.1 |
| 20260509133613 | 57 | 172 | 4.0 | 9.0 | 0.00 | 0.00 | 0.00 | 78 | 1002.2 |
| 20260509131813 | 56 | 191 | 4.0 | 10.0 | 0.00 | 0.00 | 0.00 | 78 | 1002.2 |
| 20260509130913 | 57 | 184 | 5.0 | 11.0 | 0.00 | 0.00 | 0.00 | 77 | 1002.2 |
| 20260509130012 | 56 | 175 | 5.0 | 12.0 | 0.00 | 0.00 | 0.00 | 78 | 1002.4 |
| 20260509125112 | 56 | 175 | 5.0 | 12.0 | 0.00 | 0.00 | 0.00 | 78 | 1002.3 |
| 20260509124213 | 56 | 205 | 4.0 | 10.0 | 0.00 | 0.00 | 0.00 | 80 | 1002.4 |
| 20260509123312 | 55 | 205 | 4.0 | 12.0 | 0.00 | 0.00 | 0.00 | 81 | 1002.4 |
| 20260509122412 | 54 | 183 | 5.0 | 10.0 | 0.00 | 0.00 | 0.00 | 83 | 1002.5 |
| 20260509120612 | 54 | 178 | 5.0 | 9.0 | 0.00 | 0.00 | 0.00 | 84 | 1002.5 |
| 20260509115712 | 53 | 184 | 5.0 | 10.0 | 0.00 | 0.00 | 0.00 | 84 | 1002.5 |
| 20260509114812 | 53 | 187 | 4.0 | 9.0 | 0.00 | 0.00 | 0.00 | 85 | 1002.7 |
| 20260509113912 | 53 | 177 | 4.0 | 9.0 | 0.00 | 0.00 | 0.00 | 86 | 1002.6 |
| 20260509112112 | 52 | 169 | 7.0 | 11.0 | 0.00 | 0.00 | 0.00 | 87 | 1002.7 |
| 20260509111212 | 52 | 167 | 7.0 | 10.0 | 0.00 | 0.00 | 0.00 | 87 | 1002.6 |
| 20260509110312 | 52 | 170 | 6.0 | 8.0 | 0.00 | 0.00 | 0.00 | 86 | 1002.5 |
| 20260509104512 | 52 | 169 | 7.0 | 10.0 | 0.00 | 0.00 | 0.00 | 87 | 1002.4 |
| 20260509103612 | 52 | 182 | 5.0 | 10.0 | 0.00 | 0.00 | 0.00 | 86 | 1002.2 |
| 20260509102712 | 52 | 174 | 6.0 | 10.0 | 0.00 | 0.00 | 0.00 | 87 | 1002.1 |
| 20260509101812 | 52 | 167 | 7.0 | 10.0 | 0.00 | 0.00 | 0.00 | 87 | 1002.1 |
| 20260509100912 | 52 | 172 | 7.0 | 10.0 | 0.00 | 0.00 | 0.00 | 88 | 1002.0 |
| 20260509100012 | 52 | 168 | 7.0 | 9.0 | 0.00 | 0.00 | 0.00 | 87 | 1002.0 |
| 20260509095112 | 52 | 165 | 9.0 | 11.0 | 0.00 | 0.00 | 0.00 | 87 | 1002.0 |
| 20260509094212 | 52 | 163 | 10.0 | 11.0 | 0.00 | 0.00 | 0.00 | 88 | 1002.0 |
| 20260509093312 | 52 | 163 | 7.0 | 10.0 | 0.00 | 0.00 | 0.00 | 86 | 1001.9 |
| 20260509092412 | 53 | 175 | 4.0 | 6.0 | 0.00 | 0.00 | 0.00 | 83 | 1001.9 |
| 20260509091512 | 53 | 192 | 1.0 | 3.0 | 0.00 | 0.00 | 0.00 | 84 | 1001.9 |
| 20260509090612 | 53 | 206 | 2.0 | 5.0 | 0.00 | 0.00 | 0.00 | 84 | 1001.8 |
| 20260509085712 | 53 | 215 | 3.0 | 7.0 | 0.00 | 0.00 | 0.00 | 84 | 1002.0 |
| 20260509084812 | 52 | 209 | 4.0 | 10.0 | 0.00 | 0.00 | 0.00 | 87 | 1002.2 |
| 20260509083912 | 51 | 172 | 8.0 | 12.0 | 0.00 | 0.00 | 0.00 | 90 | 1002.3 |
| 20260509083012 | 51 | 163 | 10.0 | 13.0 | 0.00 | 0.00 | 0.00 | 91 | 1002.2 |
| 20260509082112 | 51 | 162 | 9.0 | 13.0 | 0.00 | 0.00 | 0.00 | 89 | 1002.2 |
| 20260509081212 | 52 | 157 | 5.0 | 13.0 | 0.00 | 0.00 | 0.00 | 86 | 1002.3 |
| 20260509080312 | 54 | 154 | 1.0 | 8.0 | 0.00 | 0.00 | 0.00 | 79 | 1002.1 |
| 20260509075411 | 54 | 145 | 0.0 | 2.0 | 0.00 | 0.00 | 0.00 | 77 | 1002.1 |
| 20260509074511 | 54 | 157 | 1.0 | 3.0 | 0.00 | 0.00 | 0.00 | 77 | 1002.1 |
| 20260509073611 | 54 | 150 | 1.0 | 3.0 | 0.00 | 0.00 | 0.00 | 75 | 1002.0 |
| 20260509072711 | 54 | 112 | 0.0 | 3.0 | 0.00 | 0.00 | 0.00 | 76 | 1002.0 |
| 20260509071811 | 54 | 267 | 0.0 | 1.0 | 0.00 | 0.00 | 0.00 | 77 | 1002.0 |
| 20260509070911 | 53 | 116 | 1.0 | 4.0 | 0.00 | 0.00 | 0.00 | 80 | 1002.1 |
| 20260509070011 | 53 | 167 | 2.0 | 6.0 | 0.00 | 0.00 | 0.00 | 77 | 1002.2 |
| 20260509065111 | 52 | 169 | 3.0 | 7.0 | 0.00 | 0.00 | 0.00 | 81 | 1002.3 |
| 20260509064211 | 51 | 175 | 4.0 | 9.0 | 0.00 | 0.00 | 0.00 | 87 | 1002.5 |
| 20260509063311 | 51 | 182 | 4.0 | 9.0 | 0.00 | 0.00 | 0.00 | 86 | 1002.7 |
| 20260509062411 | 51 | 168 | 8.0 | 13.0 | 0.00 | 0.00 | 0.00 | 86 | 1002.6 |
| 20260509060611 | 52 | 164 | 10.0 | 12.0 | 0.00 | 0.00 | 0.00 | 84 | 1002.5 |
| 20260509055711 | 53 | 164 | 7.0 | 12.0 | 0.00 | 0.00 | 0.00 | 80 | 1002.6 |